Time;durP1;ratioP1;P1;durP2;ratioP2;P2;SDS_P1;SDS_P2;PMS_P1;PMS_P2;Temp;Humidity;BMP_temperature;BMP_pressure;BME280_temperature;BME280_humidity;BME280_pressure;Samples;Min_cycle;Max_cycle;Signal;HPM_P1;HPM_P2
2022/09/15 00:01:50;;;;;;;5.95;1.95;;;;;;;14.98;64.17;99660.03;5037404;28;20067;-56
2022/09/15 00:04:17;;;;;;;8.68;2.55;;;;;;;14.96;64.95;99657.44;5038961;28;20053;-59
2022/09/15 00:06:44;;;;;;;5.93;2.55;;;;;;;14.97;64.31;99658.31;5043834;28;20179;-57
2022/09/15 00:09:10;;;;;;;4.43;2.38;;;;;;;14.94;64.54;99658.41;5041503;28;20065;-58
2022/09/15 00:11:38;;;;;;;4.47;2.55;;;;;;;14.93;64.44;99657.53;5035501;28;20520;-58
2022/09/15 00:14:06;;;;;;;5.55;1.95;;;;;;;14.93;64.66;99654.09;5037049;28;20160;-59
2022/09/15 00:16:33;;;;;;;5.63;2.17;;;;;;;14.92;64.69;99657.59;5036452;28;20140;-57
2022/09/15 00:19:00;;;;;;;6.50;2.58;;;;;;;14.88;64.82;99652.47;5039383;28;20127;-58
2022/09/15 00:21:33;;;;;;;5.68;2.33;;;;;;;14.86;64.88;99659.47;5038384;28;20128;-59
2022/09/15 00:24:01;;;;;;;5.45;2.90;;;;;;;14.84;64.95;99657.78;5038569;28;20055;-59
2022/09/15 00:26:28;;;;;;;5.55;2.88;;;;;;;14.81;65.06;99648.31;5040119;28;20457;-58
2022/09/15 00:28:57;;;;;;;4.75;2.60;;;;;;;14.79;65.14;99655.28;5036805;28;20128;-58
2022/09/15 00:31:26;;;;;;;6.13;2.22;;;;;;;14.78;65.36;99643.16;5042184;28;20068;-59
2022/09/15 00:33:56;;;;;;;4.90;2.42;;;;;;;14.77;65.00;99646.69;5035509;28;20076;-57
2022/09/15 00:36:24;;;;;;;6.45;2.13;;;;;;;14.76;65.58;99645.78;5038521;28;20099;-58
2022/09/15 00:38:51;;;;;;;6.03;2.45;;;;;;;14.75;65.66;99645.81;5038324;28;20080;-55
2022/09/15 00:41:20;;;;;;;5.70;2.85;;;;;;;14.74;65.71;99646.72;5038584;28;20128;-58
2022/09/15 00:46:37;;;;;;;6.20;2.53;;;;;;;14.70;65.66;99645.09;5044940;27;20380;-57
2022/09/15 00:49:08;;;;;;;4.43;2.53;;;;;;;14.73;66.29;99645.03;5016331;28;20049;-57
2022/09/15 00:51:42;;;;;;;6.75;2.60;;;;;;;14.73;66.11;99647.63;5037365;28;20521;-58
2022/09/15 00:54:13;;;;;;;7.07;2.15;;;;;;;14.74;65.98;99647.59;5035243;28;20051;-58
2022/09/15 00:56:42;;;;;;;4.93;2.03;;;;;;;14.73;66.39;99645.03;5036428;28;20494;-57
2022/09/15 00:59:14;;;;;;;6.95;2.47;;;;;;;14.75;66.42;99640.59;5036597;28;20516;-56
2022/09/15 01:01:42;;;;;;;6.95;3.60;;;;;;;14.75;67.12;99644.06;5034548;28;21013;-56
2022/09/15 01:04:09;;;;;;;6.38;2.25;;;;;;;14.75;66.65;99638.00;5034035;28;20111;-55
2022/09/15 01:06:42;;;;;;;5.60;2.10;;;;;;;14.78;66.53;99640.56;5037492;28;20045;-58
2022/09/15 01:11:44;;;;;;;7.35;2.42;;;;;;;14.78;67.10;99637.94;5004447;27;20411;-55
2022/09/15 01:14:11;;;;;;;5.60;2.30;;;;;;;14.77;66.70;99642.31;4996030;28;20661;-58
2022/09/15 01:43:34;;;;;;;6.43;2.28;;;;;;;14.79;67.66;99639.66;5083906;27;20408;-55
2022/09/15 01:46:02;;;;;;;7.20;2.15;;;;;;;14.77;68.27;99636.25;5027509;28;20153;-58
2022/09/15 01:48:32;;;;;;;5.45;2.10;;;;;;;14.79;68.09;99639.66;5042661;28;20136;-58
2022/09/15 01:51:02;;;;;;;5.43;2.30;;;;;;;14.79;67.57;99644.88;5038762;28;20057;-57
2022/09/15 01:53:29;;;;;;;6.47;2.83;;;;;;;14.77;67.99;99646.69;5037868;28;20052;-56
2022/09/15 01:56:03;;;;;;;3.97;1.80;;;;;;;14.76;68.23;99648.38;5052463;28;20053;-54
2022/09/15 01:58:32;;;;;;;8.45;1.77;;;;;;;14.76;68.47;99642.34;5037447;28;20137;-56
2022/09/15 02:01:07;;;;;;;7.97;2.17;;;;;;;14.75;68.57;99648.44;5048741;28;20139;-57
2022/09/15 02:09:01;;;;;;;6.25;1.90;;;;;;;14.74;68.58;99651.94;5022904;28;20409;-57
2022/09/15 02:11:29;;;;;;;3.38;1.60;;;;;;;14.74;68.92;99652.81;5019365;28;20041;-57
2022/09/15 02:14:19;;;;;;;5.22;1.50;;;;;;;14.69;68.94;99651.22;5018180;28;20588;-58
2022/09/15 02:16:51;;;;;;;4.68;1.60;;;;;;;14.74;68.82;99649.34;5018773;28;20253;-58
2022/09/15 02:19:30;;;;;;;9.48;1.77;;;;;;;14.75;68.94;99651.03;5012991;28;20049;-58
2022/09/15 02:22:06;;;;;;;6.00;1.60;;;;;;;14.76;68.79;99645.78;5013263;28;20063;-57
2022/09/15 02:24:39;;;;;;;4.97;1.80;;;;;;;14.76;69.61;99645.78;5018767;28;20096;-58
2022/09/15 02:27:11;;;;;;;9.02;2.15;;;;;;;14.78;69.05;99649.25;5008398;28;20046;-58
2022/09/15 02:29:38;;;;;;;5.10;1.67;;;;;;;14.79;69.12;99642.25;5016950;28;20141;-57
2022/09/15 02:32:07;;;;;;;5.85;2.88;;;;;;;14.79;69.23;99647.47;5020363;28;20811;-56
2022/09/15 02:34:40;;;;;;;3.58;1.10;;;;;;;14.77;69.32;99647.50;5014553;28;20136;-57
2022/09/15 02:37:08;;;;;;;5.05;1.30;;;;;;;14.80;69.44;99651.81;5016191;28;20050;-57
2022/09/15 02:39:41;;;;;;;3.70;1.63;;;;;;;14.81;69.25;99648.31;5017661;28;20124;-57
2022/09/15 02:42:09;;;;;;;6.35;2.20;;;;;;;14.80;69.32;99653.56;5010106;28;20143;-51
2022/09/15 02:44:35;;;;;;;7.63;1.52;;;;;;;14.81;69.61;99656.13;5016047;28;20144;-55
2022/09/15 02:47:02;;;;;;;6.95;1.67;;;;;;;14.81;69.82;99648.31;5016672;28;20050;-57
2022/09/15 02:49:29;;;;;;;4.95;1.40;;;;;;;14.81;69.33;99656.13;5023986;28;20140;-56
2022/09/15 02:51:56;;;;;;;6.18;1.27;;;;;;;14.83;70.05;99662.13;5026557;28;20479;-56
2022/09/15 02:54:22;;;;;;;6.00;1.90;;;;;;;14.83;69.93;99662.13;5027119;28;20136;-57
2022/09/15 02:56:49;;;;;;;5.82;1.35;;;;;;;14.84;69.79;99658.66;5033968;28;20085;-58
2022/09/15 02:59:15;;;;;;;3.58;1.42;;;;;;;14.84;70.12;99649.97;5034803;28;20080;-55
2022/09/15 03:01:43;;;;;;;7.18;1.83;;;;;;;14.85;69.79;99655.16;5032426;28;20049;-56
2022/09/15 03:04:10;;;;;;;5.85;1.67;;;;;;;14.86;69.62;99662.06;5027044;28;20048;-56
2022/09/15 03:06:37;;;;;;;5.03;1.60;;;;;;;14.88;69.73;99659.41;5028653;28;20137;-58
2022/09/15 03:09:06;;;;;;;3.50;1.35;;;;;;;14.88;69.59;99655.06;5026071;28;20144;-57
2022/09/15 03:11:34;;;;;;;5.13;1.55;;;;;;;14.88;70.04;99659.41;5033519;28;20085;-56
2022/09/15 03:14:03;;;;;;;5.07;1.48;;;;;;;14.88;70.07;99654.19;5032510;28;20470;-58
2022/09/15 03:16:33;;;;;;;5.85;1.30;;;;;;;14.87;70.25;99645.53;5033644;28;20461;-58
2022/09/15 03:19:00;;;;;;;8.35;1.35;;;;;;;14.87;69.91;99648.16;5028134;28;20135;-57
2022/09/15 03:21:28;;;;;;;5.10;1.50;;;;;;;14.87;70.28;99650.75;5020492;28;20063;-59
2022/09/15 03:23:56;;;;;;;5.03;1.50;;;;;;;14.88;70.20;99647.25;5014918;28;20049;-59
2022/09/15 03:26:23;;;;;;;6.60;1.70;;;;;;;14.86;70.36;99651.63;5020257;28;20042;-59
2022/09/15 03:28:50;;;;;;;4.85;1.50;;;;;;;14.86;70.15;99656.84;5016069;28;20047;-53
2022/09/15 03:31:18;;;;;;;4.68;1.15;;;;;;;14.87;70.35;99657.72;5020071;28;20054;-57
2022/09/15 03:33:46;;;;;;;5.72;0.90;;;;;;;14.87;70.62;99653.38;5017322;28;20042;-57
2022/09/15 03:36:13;;;;;;;2.92;1.30;;;;;;;14.86;70.40;99659.47;5021609;28;20046;-58
2022/09/15 03:38:39;;;;;;;6.43;1.25;;;;;;;14.87;70.18;99663.81;5015717;28;20474;-55
2022/09/15 03:41:09;;;;;;;7.88;1.40;;;;;;;14.88;69.96;99662.91;5017080;28;20560;-58
2022/09/15 03:43:37;;;;;;;3.53;1.50;;;;;;;14.87;70.18;99663.81;5020373;28;20049;-57
2022/09/15 03:46:06;;;;;;;4.82;1.65;;;;;;;14.86;70.14;99656.84;5017800;28;20135;-56
2022/09/15 03:48:34;;;;;;;5.38;1.20;;;;;;;14.86;70.38;99656.00;5017377;28;20041;-58
2022/09/15 03:51:02;;;;;;;3.95;1.27;;;;;;;14.87;70.20;99658.59;5012383;28;20057;-56
2022/09/15 03:53:34;;;;;;;5.15;1.08;;;;;;;14.85;70.84;99654.28;5017393;28;20084;-56
2022/09/15 03:58:44;;;;;;;3.40;1.27;;;;;;;14.84;70.74;99658.66;5083963;27;20911;-54
2022/09/15 04:01:11;;;;;;;7.78;2.53;;;;;;;14.83;70.36;99651.72;5028967;28;20426;-57
2022/09/15 04:03:38;;;;;;;4.85;1.48;;;;;;;14.83;70.47;99656.94;5026086;28;20487;-53
2022/09/15 04:06:12;;;;;;;7.65;1.60;;;;;;;14.80;70.69;99651.81;5046153;28;20045;-57
2022/09/15 04:08:38;;;;;;;5.78;1.08;;;;;;;14.82;70.46;99655.22;5048446;28;20044;-58
2022/09/15 04:11:07;;;;;;;7.03;1.92;;;;;;;14.80;70.64;99651.81;5045730;28;20128;-54
2022/09/15 04:13:35;;;;;;;6.63;1.40;;;;;;;14.79;70.50;99665.72;5044631;28;20509;-57
2022/09/15 04:16:09;;;;;;;4.90;0.98;;;;;;;14.76;70.68;99664.03;5036947;28;20051;-58
2022/09/15 04:18:36;;;;;;;4.63;1.00;;;;;;;14.77;70.34;99662.31;5041722;28;20141;-58
2022/09/15 04:21:05;;;;;;;11.98;1.52;;;;;;;14.76;70.49;99677.06;5051588;28;20138;-57
2022/09/15 04:23:32;;;;;;;4.00;0.95;;;;;;;14.73;70.66;99669.31;5046962;28;20044;-57
2022/09/15 04:26:02;;;;;;;5.38;1.17;;;;;;;14.73;70.27;99671.09;5045333;28;20132;-57
2022/09/15 04:28:31;;;;;;;;;;;;;;;14.58;71.28;99667.97;5055885;28;20137;-58
2022/09/15 04:31:08;;;;;;;5.82;1.38;;;;;;;14.67;70.42;99676.44;5052050;28;20030;-56
2022/09/15 04:33:36;;;;;;;8.48;1.83;;;;;;;14.70;70.30;99672.03;5052731;28;20132;-58
2022/09/15 04:36:06;;;;;;;5.80;0.95;;;;;;;14.72;70.40;99669.34;5042957;28;20076;-57
2022/09/15 04:38:34;;;;;;;;;;;;;;;14.55;70.74;99678.47;5053074;28;20155;-56
2022/09/15 04:41:01;;;;;;;6.50;1.13;;;;;;;14.65;70.59;99666.94;5037107;28;20031;-55
2022/09/15 04:43:29;;;;;;;6.88;1.42;;;;;;;14.67;70.14;99672.09;5035422;28;20067;-57
2022/09/15 04:45:55;;;;;;;4.88;1.05;;;;;;;14.67;70.24;99672.09;5038773;28;20057;-57
2022/09/15 04:48:22;;;;;;;6.18;1.20;;;;;;;14.67;70.55;99671.22;5039852;28;20080;-58
2022/09/15 04:50:49;;;;;;;8.70;1.27;;;;;;;14.67;69.88;99671.22;5039356;28;20052;-57
2022/09/15 04:53:15;;;;;;;3.92;1.05;;;;;;;14.67;69.53;99681.66;5038219;28;20092;-58
2022/09/15 04:55:42;;;;;;;7.90;1.00;;;;;;;14.63;70.54;99676.53;5040010;28;20079;-58
2022/09/15 04:58:09;;;;;;;4.13;0.93;;;;;;;14.61;69.80;99678.31;5052843;28;20114;-56
2022/09/15 05:00:42;;;;;;;9.02;1.20;;;;;;;14.61;69.73;99680.94;5048100;28;20072;-58
2022/09/15 05:03:10;;;;;;;5.30;0.88;;;;;;;14.59;70.45;99685.31;5048894;28;20048;-57
2022/09/15 05:05:37;;;;;;;8.45;1.65;;;;;;;14.59;70.08;99695.75;5041894;28;20464;-56
2022/09/15 05:08:04;;;;;;;3.45;1.13;;;;;;;14.58;70.23;99694.03;5045719;28;20049;-57
2022/09/15 05:10:31;;;;;;;4.45;1.00;;;;;;;14.59;69.74;99687.91;5024521;28;20132;-57
2022/09/15 05:12:58;;;;;;;6.40;1.30;;;;;;;14.58;70.06;99694.03;5019133;28;20129;-54
2022/09/15 05:15:25;;;;;;;3.25;1.63;;;;;;;14.58;70.17;99688.81;5021725;28;20085;-58
2022/09/15 05:17:52;;;;;;;3.72;1.20;;;;;;;14.56;69.93;99695.81;5023076;28;20128;-57
2022/09/15 05:20:18;;;;;;;4.85;1.33;;;;;;;14.56;69.49;99695.81;5040876;28;20044;-57
2022/09/15 05:22:45;;;;;;;7.07;1.13;;;;;;;14.56;70.07;99698.41;5020798;28;20049;-58
2022/09/15 05:25:12;;;;;;;4.20;0.98;;;;;;;14.56;69.69;99706.22;5021170;28;20124;-54
2022/09/15 05:27:38;;;;;;;6.70;0.80;;;;;;;14.56;70.03;99701.03;5020664;28;20060;-57
2022/09/15 05:30:06;;;;;;;5.50;0.82;;;;;;;14.56;70.13;99702.78;5020449;28;20145;-56
2022/09/15 05:32:52;;;;;;;8.00;0.90;;;;;;;14.54;69.95;99697.63;5031534;28;20056;-58
2022/09/15 05:35:19;;;;;;;4.00;0.95;;;;;;;14.52;69.86;99697.66;5026487;28;20042;-54
2022/09/15 05:37:46;;;;;;;5.43;1.05;;;;;;;14.52;69.67;99700.25;5023575;28;20049;-56
2022/09/15 05:40:12;;;;;;;4.57;0.85;;;;;;;14.52;69.99;99694.16;5035721;28;20132;-58
2022/09/15 05:42:42;;;;;;;5.10;1.02;;;;;;;14.52;69.57;99702.00;5025125;28;20043;-58
2022/09/15 05:45:09;;;;;;;4.70;0.68;;;;;;;14.48;69.27;99697.75;5035345;28;20107;-56
2022/09/15 05:47:36;;;;;;;9.02;1.30;;;;;;;14.47;69.28;99704.72;5025637;28;20946;-55
2022/09/15 05:50:02;;;;;;;4.75;1.65;;;;;;;14.46;69.79;99699.56;5030123;28;20588;-57
2022/09/15 05:52:29;;;;;;;2.60;1.38;;;;;;;14.44;69.33;99707.41;5036924;28;20753;-57
2022/09/15 05:54:55;;;;;;;8.43;0.93;;;;;;;14.41;69.59;99707.47;5023561;28;20056;-56
2022/09/15 05:57:24;;;;;;;9.52;0.93;;;;;;;14.39;69.65;99709.28;5025564;28;20045;-56
2022/09/15 05:59:51;;;;;;;6.18;1.10;;;;;;;14.36;69.59;99715.38;5022359;28;20050;-56
2022/09/15 06:02:17;;;;;;;7.63;1.00;;;;;;;14.34;69.73;99711.97;5025951;28;20672;-56
2022/09/15 06:04:44;;;;;;;7.90;2.08;;;;;;;14.34;69.30;99722.41;5028142;28;20056;-56
2022/09/15 06:07:11;;;;;;;4.55;1.25;;;;;;;14.34;69.07;99716.31;5027278;28;20132;-56
2022/09/15 06:09:38;;;;;;;4.82;0.73;;;;;;;14.32;69.41;99708.53;5025200;28;20077;-58
2022/09/15 06:12:05;;;;;;;3.17;0.95;;;;;;;14.33;69.11;99722.44;5018523;28;20144;-54
2022/09/15 06:14:31;;;;;;;5.32;1.42;;;;;;;14.30;69.01;99720.78;5026292;28;20054;-58
2022/09/15 06:16:58;;;;;;;4.30;0.95;;;;;;;14.27;68.83;99723.44;5022264;28;20045;-53
2022/09/15 06:19:24;;;;;;;5.07;1.08;;;;;;;14.26;68.61;99721.72;5023361;28;20135;-57
2022/09/15 06:21:51;;;;;;;4.53;0.73;;;;;;;14.21;68.89;99726.16;5027309;28;20053;-54
2022/09/15 06:24:18;;;;;;;2.83;1.13;;;;;;;14.21;69.03;99721.84;5021617;28;20045;-55
2022/09/15 06:26:45;;;;;;;2.83;1.05;;;;;;;14.21;69.21;99731.38;5028543;28;20056;-60
2022/09/15 06:29:12;;;;;;;4.30;0.73;;;;;;;14.20;68.20;99725.34;5021088;28;20523;-59
2022/09/15 06:31:39;;;;;;;6.43;1.02;;;;;;;14.20;68.77;99729.69;5018537;28;20561;-53
2022/09/15 06:34:07;;;;;;;3.67;1.02;;;;;;;14.19;69.01;99727.97;5018975;28;20124;-58
2022/09/15 06:36:35;;;;;;;4.45;0.95;;;;;;;14.20;68.42;99734.88;5018955;28;20099;-57
2022/09/15 06:39:02;;;;;;;7.93;0.80;;;;;;;14.20;68.29;99730.53;5018362;28;20053;-57
2022/09/15 06:41:29;;;;;;;5.03;0.88;;;;;;;14.20;68.18;99735.75;5014581;28;20152;-54
2022/09/15 06:44:15;;;;;;;2.70;1.63;;;;;;;14.20;67.85;99737.50;5029060;28;20467;-58
2022/09/15 06:46:42;;;;;;;4.72;0.75;;;;;;;14.22;68.72;99738.31;5029506;28;20084;-59
2022/09/15 06:49:09;;;;;;;2.85;0.77;;;;;;;14.26;68.42;99734.75;5026243;28;20052;-58
2022/09/15 06:52:29;;;;;;;7.65;1.80;;;;;;;14.25;68.48;99743.44;5025084;28;20452;-58
2022/09/15 06:54:55;;;;;;;5.10;0.68;;;;;;;14.29;67.63;99750.31;5022346;28;20037;-55
2022/09/15 06:57:22;;;;;;;4.97;1.08;;;;;;;14.34;67.90;99750.19;5030868;28;20069;-60
2022/09/15 06:59:49;;;;;;;6.00;1.15;;;;;;;14.38;67.51;99760.50;5030433;28;20132;-59
2022/09/15 07:02:15;;;;;;;6.50;0.85;;;;;;;14.43;67.93;99756.94;5031568;28;20128;-57
2022/09/15 07:04:42;;;;;;;3.90;0.57;;;;;;;14.49;67.59;99767.25;5018621;28;20717;-57
2022/09/15 07:07:09;;;;;;;2.72;0.70;;;;;;;14.52;67.65;99767.13;5026200;28;20138;-58
2022/09/15 07:09:36;;;;;;;4.68;0.90;;;;;;;14.56;67.42;99763.56;5028837;28;20140;-59
2022/09/15 07:12:06;;;;;;;6.50;0.95;;;;;;;14.62;66.90;99773.84;5019953;28;20079;-57
2022/09/15 07:14:33;;;;;;;5.13;1.25;;;;;;;14.68;66.74;99770.25;5026477;28;20079;-57
2022/09/15 07:17:00;;;;;;;8.80;1.55;;;;;;;14.73;67.25;99764.94;5022750;28;20144;-56
2022/09/15 07:19:26;;;;;;;5.57;1.25;;;;;;;14.77;66.95;99772.66;5030991;28;20049;-58
2022/09/15 07:21:53;;;;;;;5.50;1.13;;;;;;;14.83;67.07;99776.84;5024880;28;20387;-57
2022/09/15 07:24:20;;;;;;;5.43;1.63;;;;;;;14.90;67.28;99785.41;5035237;28;20083;-58
2022/09/15 07:26:46;;;;;;;3.90;1.13;;;;;;;14.96;66.99;99781.78;5025111;28;20192;-58
2022/09/15 07:29:13;;;;;;;2.92;0.80;;;;;;;15.04;66.59;99785.06;5028436;28;20044;-57
2022/09/15 07:31:40;;;;;;;4.00;0.88;;;;;;;15.08;66.00;99786.69;5032587;28;20057;-58
2022/09/15 07:34:07;;;;;;;4.07;1.08;;;;;;;15.12;65.98;99790.91;5031735;28;20492;-55
2022/09/15 07:36:34;;;;;;;3.97;1.08;;;;;;;15.20;66.71;99800.31;5024854;28;20698;-54
2022/09/15 07:39:01;;;;;;;3.28;1.00;;;;;;;15.26;66.07;99789.69;5027000;28;20052;-57
2022/09/15 07:41:29;;;;;;;2.25;0.82;;;;;;;15.32;66.09;99799.09;5025693;28;20128;-58
2022/09/15 07:43:58;;;;;;;2.28;0.80;;;;;;;15.36;65.88;99796.38;5026064;28;20136;-56
2022/09/15 07:46:26;;;;;;;4.35;1.60;;;;;;;15.39;65.76;99798.06;5037014;28;20511;-56
2022/09/15 07:48:55;;;;;;;3.88;0.82;;;;;;;15.47;64.82;99800.47;5036982;28;20146;-58
2022/09/15 07:51:22;;;;;;;6.15;1.88;;;;;;;15.57;64.78;99804.53;5018879;28;20459;-58
2022/09/15 07:53:50;;;;;;;2.72;0.73;;;;;;;15.75;64.53;99808.41;5027969;28;20066;-58
2022/09/15 07:56:17;;;;;;;2.38;0.80;;;;;;;15.84;64.56;99807.25;5027856;28;20045;-57
2022/09/15 07:58:46;;;;;;;3.92;0.80;;;;;;;15.86;64.44;99815.06;5022564;28;20073;-56
2022/09/15 08:01:14;;;;;;;5.82;1.58;;;;;;;15.89;64.07;99815.84;5020792;28;20045;-56
2022/09/15 08:03:42;;;;;;;8.30;1.25;;;;;;;15.94;64.24;99816.56;5017023;28;20053;-58
2022/09/15 08:06:09;;;;;;;3.15;0.90;;;;;;;16.00;63.83;99818.16;5020767;28;20057;-58
2022/09/15 08:08:37;;;;;;;3.78;0.75;;;;;;;16.11;63.68;99814.41;5022334;28;20136;-58
2022/09/15 08:11:07;;;;;;;5.03;2.58;;;;;;;16.29;63.98;99828.66;5026443;28;20606;-59
2022/09/15 08:13:34;;;;;;;2.42;0.60;;;;;;;16.42;63.36;99826.53;5023454;28;20049;-59
2022/09/15 08:16:11;;;;;;;5.45;1.08;;;;;;;16.57;63.20;99828.69;5003580;28;20059;-58
2022/09/15 08:18:40;;;;;;;6.35;1.15;;;;;;;16.72;62.97;99830.84;5013931;28;20077;-56
2022/09/15 08:21:11;;;;;;;2.78;1.42;;;;;;;16.80;62.41;99824.47;5014849;28;20551;-54
2022/09/15 08:23:39;;;;;;;6.32;1.33;;;;;;;16.91;61.66;99831.97;5029385;28;20143;-59
2022/09/15 08:26:08;;;;;;;3.88;0.90;;;;;;;16.94;61.74;99826.63;5026904;28;20050;-59
2022/09/15 08:28:40;;;;;;;3.78;0.80;;;;;;;16.93;61.32;99826.69;5021493;28;20069;-58
2022/09/15 08:31:10;;;;;;;4.85;0.95;;;;;;;16.92;61.71;99836.28;5018499;28;20053;-58
2022/09/15 08:33:37;;;;;;;5.35;2.85;;;;;;;16.96;60.94;99835.28;5023901;28;20589;-56
2022/09/15 08:36:11;;;;;;;7.25;1.27;;;;;;;17.21;60.69;99828.41;5024022;28;20048;-59
2022/09/15 08:38:39;;;;;;;4.57;0.95;;;;;;;17.45;60.53;99839.81;5030277;28;20392;-59
2022/09/15 08:41:12;;;;;;;5.93;0.82;;;;;;;17.55;60.02;99847.31;5024301;28;20053;-57
2022/09/15 08:43:45;;;;;;;4.57;1.55;;;;;;;17.52;60.33;99842.19;5027959;28;20543;-59
2022/09/15 08:46:18;;;;;;;6.97;2.05;;;;;;;17.41;60.08;99843.44;5030102;28;20133;-59
2022/09/15 08:48:53;;;;;;;6.28;1.15;;;;;;;17.31;60.15;99847.28;5026110;28;20067;-55
2022/09/15 08:51:28;;;;;;;6.32;1.30;;;;;;;17.18;59.60;99845.06;5029673;28;20502;-55
2022/09/15 08:54:02;;;;;;;4.45;1.70;;;;;;;17.11;59.70;99858.41;5030630;28;20132;-56
2022/09/15 08:56:29;;;;;;;7.40;1.58;;;;;;;17.06;60.53;99858.56;5036547;28;20141;-56
2022/09/15 08:58:56;;;;;;;5.22;1.35;;;;;;;17.02;60.24;99859.53;5036126;28;20151;-57
2022/09/15 09:07:16;;;;;;;4.47;1.83;;;;;;;16.81;60.81;99857.56;5037926;27;20406;-50
2022/09/15 09:18:13;;;;;;;5.70;2.15;;;;;;;17.15;60.87;99866.09;5062630;27;20379;-52
2022/09/15 09:26:01;;;;;;;20.25;3.83;;;;;;;18.06;59.53;99868.22;5045109;28;20412;-51
2022/09/15 09:36:18;;;;;;;5.28;4.40;;;;;;;18.97;57.00;99876.16;5055320;27;20405;-50
2022/09/15 09:38:47;;;;;;;8.77;4.35;;;;;;;19.01;57.01;99883.84;5041022;28;20144;-51
2022/09/15 09:41:21;;;;;;;6.60;3.97;;;;;;;19.10;56.97;99887.03;5050726;28;20123;-52
2022/09/15 09:43:48;;;;;;;5.50;2.60;;;;;;;19.36;56.67;99885.13;5012206;28;20665;-50
2022/09/15 09:46:17;;;;;;;9.32;5.40;;;;;;;19.51;55.30;99887.09;5005917;28;20101;-48
2022/09/15 09:48:51;;;;;;;6.20;3.75;;;;;;;19.51;55.49;99881.84;5034509;28;20049;-51
2022/09/15 09:51:39;;;;;;;7.00;4.05;;;;;;;19.46;55.61;99889.06;5007896;28;20708;-54
2022/09/15 10:17:54;;;;;;;9.75;4.88;;;;;;;18.70;56.18;99890.31;5058871;27;20410;-53
2022/09/15 10:25:36;;;;;;;9.82;2.95;;;;;;;19.08;55.57;99892.34;5055727;28;20387;-54
2022/09/15 10:28:25;;;;;;;7.85;3.00;;;;;;;19.17;55.72;99893.75;5053527;28;20045;-50
2022/09/15 10:49:51;;;;;;;5.72;4.25;;;;;;;19.38;53.85;99896.38;5036666;28;20404;-54
2022/09/15 11:10:30;;;;;;;4.68;2.22;;;;;;;19.19;53.79;99886.69;5044227;28;20400;-49
2022/09/15 11:13:07;;;;;;;3.33;1.65;;;;;;;19.35;53.05;99892.13;5008072;28;20048;-56
2022/09/15 11:24:35;;;;;;;4.07;3.25;;;;;;;19.27;51.97;99891.59;5024699;28;20394;-55
2022/09/15 11:29:59;;;;;;;3.20;1.92;;;;;;;19.32;52.79;99894.03;5078074;27;20413;-52
2022/09/15 11:35:30;;;;;;;5.25;1.50;;;;;;;19.32;51.00;99902.75;5041977;28;20400;-53
2022/09/15 11:40:49;;;;;;;2.65;1.48;;;;;;;19.19;49.84;99906.81;5040924;28;20402;-55
2022/09/15 11:45:56;;;;;;;1.45;0.50;;;;;;;19.13;49.80;99908.78;5070200;27;20414;-43
2022/09/15 11:48:33;;;;;;;3.55;1.13;;;;;;;19.25;50.39;99907.41;5061264;28;20060;-48
2022/09/15 11:51:02;;;;;;;1.45;0.70;;;;;;;19.43;49.99;99904.94;5061611;28;20041;-47
2022/09/15 11:53:36;;;;;;;2.88;0.80;;;;;;;19.58;49.85;99907.81;5058553;28;20079;-46
2022/09/15 11:58:58;;;;;;;2.05;1.08;;;;;;;19.77;48.85;99905.28;5058633;28;20779;-49
2022/09/15 12:01:32;;;;;;;3.40;1.02;;;;;;;19.85;49.36;99904.91;4994034;28;20486;-50
2022/09/15 12:04:04;;;;;;;4.00;1.05;;;;;;;19.88;48.42;99912.66;4995895;28;20069;-50
2022/09/15 12:09:19;;;;;;;3.13;1.15;;;;;;;19.72;48.73;99913.34;5013679;28;20401;-48
2022/09/15 12:11:52;;;;;;;2.67;0.85;;;;;;;19.68;48.29;99919.66;5007878;28;20058;-47
2022/09/15 12:17:06;;;;;;;3.75;1.25;;;;;;;19.73;48.34;99909.78;5071334;27;20406;-50
2022/09/15 12:22:48;;;;;;;3.15;2.05;;;;;;;19.92;48.47;99911.63;5054841;27;20411;-48
2022/09/15 12:25:20;;;;;;;2.00;1.40;;;;;;;20.11;46.84;99922.22;5041951;28;20049;-49
2022/09/15 12:31:24;;;;;;;3.63;2.05;;;;;;;20.20;44.53;99928.84;5004740;28;20428;-52
2022/09/15 12:34:31;;;;;;;3.33;0.73;;;;;;;19.95;45.98;99937.78;5000742;28;20065;-49
2022/09/15 12:37:13;;;;;;;4.43;0.77;;;;;;;19.76;45.78;99933.31;5001966;28;20137;-49
2022/09/15 12:39:43;;;;;;;2.85;0.80;;;;;;;19.64;46.98;99934.69;5002793;28;20044;-50
2022/09/15 12:47:47;;;;;;;2.03;1.20;;;;;;;19.39;47.15;99940.97;5085252;27;20410;-54
2022/09/15 12:52:56;;;;;;;3.10;1.45;;;;;;;19.33;47.34;99940.38;5102958;27;20411;-52
2022/09/15 12:55:28;;;;;;;3.90;1.98;;;;;;;19.31;47.63;99947.44;5086214;28;20062;-49
2022/09/15 12:57:58;;;;;;;3.88;1.55;;;;;;;19.33;47.73;99938.63;5080362;28;20044;-53
2022/09/15 13:00:28;;;;;;;2.88;2.15;;;;;;;19.40;48.14;99931.31;5078357;28;20044;-50
2022/09/15 13:02:56;;;;;;;5.10;2.13;;;;;;;19.45;48.18;99929.34;5080757;28;20045;-48
2022/09/15 13:13:44;;;;;;;3.15;1.00;;;;;;;19.40;47.00;99933.94;5097755;27;20711;-50
2022/09/15 13:16:19;;;;;;;2.65;0.70;;;;;;;19.38;47.19;99927.91;5058726;27;20407;-51
2022/09/15 13:18:49;;;;;;;5.05;0.63;;;;;;;19.44;47.12;99932.91;5058196;28;20139;-51
2022/09/15 13:21:21;;;;;;;6.70;1.25;;;;;;;19.51;46.79;99934.38;5059320;28;20076;-52
2022/09/15 13:23:51;;;;;;;2.78;0.40;;;;;;;19.56;47.13;99935.94;5059585;28;20051;-49
2022/09/15 13:26:22;;;;;;;2.85;0.77;;;;;;;19.56;46.86;99936.81;5059872;28;20037;-47
2022/09/15 13:28:51;;;;;;;3.75;0.90;;;;;;;19.57;46.78;99932.38;5059923;28;20045;-50
2022/09/15 13:31:48;;;;;;;3.50;0.55;;;;;;;19.56;46.84;99934.19;5054833;28;20052;-49
2022/09/15 13:50:45;;;;;;;4.18;1.10;;;;;;;19.50;46.54;99932.66;5025207;28;20430;-49
2022/09/15 13:55:56;;;;;;;3.40;1.52;;;;;;;19.80;44.72;99935.81;5061531;27;20405;-48
2022/09/15 13:58:25;;;;;;;2.63;2.00;;;;;;;19.69;45.56;99938.91;4983254;28;20332;-52
2022/09/15 14:01:13;;;;;;;4.47;2.83;;;;;;;19.68;45.62;99934.53;4980374;28;20055;-49
2022/09/15 14:03:45;;;;;;;2.83;1.88;;;;;;;19.68;45.71;99935.41;4983418;28;20046;-50
2022/09/15 14:06:16;;;;;;;3.25;2.13;;;;;;;19.68;45.94;99937.19;5017748;28;20760;-50
2022/09/15 14:08:47;;;;;;;3.88;1.95;;;;;;;19.69;45.64;99931.84;5023444;28;20129;-53
2022/09/15 14:11:20;;;;;;;2.08;1.65;;;;;;;19.67;45.77;99932.84;4985570;28;20050;-51
2022/09/15 14:13:49;;;;;;;3.60;1.42;;;;;;;19.65;45.39;99931.16;5000190;28;20506;-51
2022/09/15 14:16:32;;;;;;;4.53;1.38;;;;;;;19.63;45.34;99932.13;4986034;28;20096;-47
2022/09/15 14:19:02;;;;;;;1.95;1.42;;;;;;;19.70;45.54;99928.34;4984801;28;20080;-46
2022/09/15 14:21:32;;;;;;;2.17;0.70;;;;;;;19.72;45.45;99925.66;5015098;28;20483;-51
2022/09/15 14:24:04;;;;;;;2.50;2.00;;;;;;;19.72;44.91;99926.47;4991321;28;20049;-50
2022/09/15 14:26:34;;;;;;;2.40;1.50;;;;;;;19.71;44.45;99924.78;5025021;28;20070;-54
2022/09/15 14:29:05;;;;;;;3.05;1.33;;;;;;;19.68;44.54;99934.53;5017249;28;20078;-53
2022/09/15 14:31:37;;;;;;;2.67;1.75;;;;;;;19.66;44.60;99929.38;4986438;28;20184;-49
2022/09/15 14:34:13;;;;;;;2.05;1.48;;;;;;;19.67;44.87;99923.22;4990046;28;20046;-53
2022/09/15 14:36:40;;;;;;;4.80;1.75;;;;;;;19.63;44.88;99929.50;4995896;28;20050;-50
2022/09/15 14:41:47;;;;;;;2.28;0.95;;;;;;;19.62;44.76;99928.66;5084813;27;20409;-47
2022/09/15 14:44:38;;;;;;;2.80;1.15;;;;;;;19.59;45.07;99935.81;5061117;28;20044;-50
2022/09/15 14:47:27;;;;;;;2.63;0.63;;;;;;;19.60;44.93;99938.38;5060205;28;20415;-50
2022/09/15 14:52:50;;;;;;;1.55;0.52;;;;;;;19.50;44.81;99937.91;5059494;28;20380;-54
2022/09/15 14:58:12;;;;;;;4.22;0.70;;;;;;;19.39;44.50;99932.25;5071644;27;20575;-52
2022/09/15 15:00:50;;;;;;;4.30;0.80;;;;;;;19.39;44.46;99932.25;5061562;28;20051;-50
2022/09/15 15:03:43;;;;;;;2.63;0.68;;;;;;;19.36;45.34;99935.84;5055804;28;20040;-48
2022/09/15 15:06:16;;;;;;;4.32;0.70;;;;;;;19.38;44.67;99933.16;5060163;28;20081;-47
2022/09/15 15:09:08;;;;;;;2.90;0.75;;;;;;;19.34;44.25;99932.44;5056017;28;20049;-47
2022/09/15 15:11:37;;;;;;;6.45;0.93;;;;;;;19.34;44.59;99934.19;5055372;28;20037;-49
2022/09/15 15:14:07;;;;;;;1.25;0.88;;;;;;;19.32;44.88;99936.06;5056920;28;20049;-46
2022/09/15 15:16:34;;;;;;;2.92;0.70;;;;;;;19.29;44.49;99944.03;5051496;28;20048;-51
2022/09/15 15:19:01;;;;;;;2.15;0.60;;;;;;;19.24;44.31;99945.09;5076484;28;20048;-51
2022/09/15 15:21:39;;;;;;;2.67;1.13;;;;;;;19.14;44.43;99941.97;5062631;28;20132;-52